Time;durP1;ratioP1;P1;durP2;ratioP2;P2;SDS_P1;SDS_P2;PMS_P1;PMS_P2;Temp;Humidity;BMP_temperature;BMP_pressure;BME280_temperature;BME280_humidity;BME280_pressure;Samples;Min_cycle;Max_cycle;Signal;HPM_P1;HPM_P2
2023/06/05 00:00:55;;;;;;;2.88;2.55;;;;;;;11.65;100.00;102485.09;4965118;28;20050;-78
2023/06/05 00:03:24;;;;;;;3.42;2.58;;;;;;;11.64;100.00;102479.78;4953761;28;20050;-77
2023/06/05 00:05:52;;;;;;;3.28;2.08;;;;;;;11.65;100.00;102489.50;4944938;28;20051;-78
2023/06/05 00:08:19;;;;;;;8.15;2.63;;;;;;;11.65;100.00;102481.56;4969098;28;20046;-78
2023/06/05 00:10:47;;;;;;;5.85;2.70;;;;;;;11.67;100.00;102477.22;4935451;28;20053;-78
2023/06/05 00:13:15;;;;;;;5.13;2.80;;;;;;;11.64;100.00;102488.56;4959224;28;20062;-78
2023/06/05 00:15:42;;;;;;;3.72;2.88;;;;;;;11.66;100.00;102485.97;4986736;28;20065;-78
2023/06/05 00:18:10;;;;;;;3.78;2.33;;;;;;;11.67;100.00;102482.50;4983802;28;20431;-77
2023/06/05 00:20:37;;;;;;;5.82;2.38;;;;;;;11.65;100.00;102485.09;4976156;28;20046;-77
2023/06/05 00:23:04;;;;;;;2.67;2.47;;;;;;;11.63;100.00;102483.28;4953519;28;20054;-77
2023/06/05 00:25:32;;;;;;;6.07;2.60;;;;;;;11.60;100.00;102486.72;4930771;28;20042;-77
2023/06/05 00:27:59;;;;;;;2.67;2.47;;;;;;;11.60;100.00;102476.16;4970152;28;20069;-79
2023/06/05 00:30:27;;;;;;;5.70;2.75;;;;;;;11.63;100.00;102486.81;4950876;28;20050;-79
2023/06/05 00:32:56;;;;;;;3.17;2.10;;;;;;;11.59;100.00;102477.03;4986756;28;20523;-79
2023/06/05 00:35:23;;;;;;;3.40;2.30;;;;;;;11.58;100.00;102483.16;4976452;28;20054;-79
2023/06/05 00:37:51;;;;;;;2.72;2.30;;;;;;;11.58;100.00;102483.16;4950937;28;20097;-79
2023/06/05 00:40:19;;;;;;;2.38;2.17;;;;;;;11.57;100.00;102481.38;4984976;28;20042;-79
2023/06/05 00:42:46;;;;;;;2.92;2.63;;;;;;;11.56;100.00;102476.94;4933917;28;20051;-79
2023/06/05 00:45:14;;;;;;;5.63;2.35;;;;;;;11.58;100.00;102487.53;4968014;28;20561;-79
2023/06/05 00:47:41;;;;;;;3.08;2.78;;;;;;;11.59;100.00;102479.66;4970849;28;20397;-79
2023/06/05 00:50:11;;;;;;;4.20;2.70;;;;;;;11.59;100.00;102482.31;4981082;28;20046;-79
2023/06/05 00:52:40;;;;;;;2.60;2.30;;;;;;;11.60;100.00;102481.44;4960972;28;20077;-79
2023/06/05 00:55:08;;;;;;;5.15;1.98;;;;;;;11.56;100.00;102478.69;4985499;28;20042;-79
2023/06/05 00:57:38;;;;;;;3.70;2.33;;;;;;;11.55;100.00;102479.53;4924448;28;20419;-79
2023/06/05 01:00:08;;;;;;;3.17;2.45;;;;;;;11.54;100.00;102478.66;4968211;28;20050;-79
2023/06/05 01:02:37;;;;;;;3.03;2.53;;;;;;;11.51;100.00;102474.19;4970905;28;20519;-79
2023/06/05 01:05:04;;;;;;;5.70;2.42;;;;;;;11.48;100.00;102479.38;4984157;28;20042;-79
2023/06/05 01:07:34;;;;;;;2.55;2.22;;;;;;;11.48;100.00;102470.59;4960295;28;20587;-78
2023/06/05 01:10:03;;;;;;;3.38;2.30;;;;;;;11.47;100.00;102479.34;4952713;28;20050;-78
2023/06/05 01:12:43;;;;;;;2.28;1.98;;;;;;;11.44;100.00;102474.00;4947887;28;20039;-79
2023/06/05 01:15:11;;;;;;;2.60;2.40;;;;;;;11.40;100.00;102477.41;4983551;28;20057;-78
2023/06/05 01:17:39;;;;;;;2.03;1.90;;;;;;;11.38;100.00;102469.47;4985821;28;20061;-79
2023/06/05 01:20:08;;;;;;;2.20;2.00;;;;;;;11.38;100.00;102474.75;4983202;28;20049;-79
2023/06/05 01:22:37;;;;;;;2.72;2.53;;;;;;;11.40;100.00;102466.84;4986100;28;20054;-78
2023/06/05 01:25:07;;;;;;;4.28;2.70;;;;;;;11.41;100.00;102469.53;4957982;28;20076;-79
2023/06/05 01:27:46;;;;;;;2.77;2.30;;;;;;;11.39;100.00;102459.78;4951706;28;20057;-79
2023/06/05 01:30:24;;;;;;;3.28;2.30;;;;;;;11.38;100.00;102464.19;4983434;28;20046;-79
2023/06/05 01:33:24;;;;;;;4.10;2.10;;;;;;;11.40;100.00;102461.56;4986084;28;20130;-79
2023/06/05 01:35:53;;;;;;;2.27;2.07;;;;;;;11.35;100.00;102457.94;4972096;28;20389;-78
2023/06/05 01:38:21;;;;;;;2.70;2.38;;;;;;;11.30;100.00;102463.06;4957042;28;20054;-79
2023/06/05 01:40:51;;;;;;;3.17;2.20;;;;;;;11.28;100.00;102463.03;4986099;28;20046;-78
2023/06/05 01:43:20;;;;;;;2.65;2.45;;;;;;;11.25;100.00;102462.97;4947974;28;20047;-79
2023/06/05 01:45:48;;;;;;;3.33;2.60;;;;;;;11.25;100.00;102447.13;4969923;28;20496;-79
2023/06/05 01:48:16;;;;;;;3.00;2.40;;;;;;;11.26;100.00;102451.53;4968121;28;20692;-79
2023/06/05 01:50:43;;;;;;;4.25;2.55;;;;;;;11.28;100.00;102451.59;4958945;28;20039;-79
2023/06/05 01:53:12;;;;;;;3.03;2.10;;;;;;;11.29;100.00;102449.00;4966534;28;20050;-79
2023/06/05 01:55:40;;;;;;;3.78;2.30;;;;;;;11.29;100.00;102446.34;4972123;28;20054;-78
2023/06/05 01:58:08;;;;;;;1.95;1.80;;;;;;;11.30;100.00;102434.03;4957038;28;20069;-79
2023/06/05 02:00:36;;;;;;;2.30;2.00;;;;;;;11.30;100.00;102434.97;4930469;28;20050;-78
2023/06/05 02:03:04;;;;;;;2.20;2.00;;;;;;;11.31;100.00;102435.84;4984437;28;20480;-79
2023/06/05 02:05:33;;;;;;;2.55;2.10;;;;;;;11.31;100.00;102435.84;4985672;28;20058;-79
2023/06/05 02:08:04;;;;;;;3.85;2.40;;;;;;;11.28;100.00;102447.19;4952635;28;20051;-79
2023/06/05 02:10:32;;;;;;;3.60;2.00;;;;;;;11.28;100.00;102441.03;4974503;28;20053;-79
2023/06/05 02:13:02;;;;;;;3.78;2.25;;;;;;;11.24;100.00;102440.06;4981273;28;20051;-79
2023/06/05 02:15:32;;;;;;;2.45;2.25;;;;;;;11.24;100.00;102436.53;4944852;28;20057;-79
2023/06/05 02:18:02;;;;;;;8.32;3.15;;;;;;;11.26;100.00;102435.69;4966283;28;20428;-79
2023/06/05 02:20:32;;;;;;;4.55;2.05;;;;;;;11.27;100.00;102432.22;4967488;28;20073;-78
2023/06/05 02:22:59;;;;;;;2.25;2.05;;;;;;;11.26;100.00;102440.97;4939965;28;20467;-79
2023/06/05 02:25:29;;;;;;;2.10;1.63;;;;;;;11.28;100.00;102431.34;4966260;28;20116;-79
2023/06/05 02:27:56;;;;;;;3.33;1.90;;;;;;;11.30;100.00;102434.97;4961510;28;20073;-78
2023/06/05 02:30:24;;;;;;;2.85;2.65;;;;;;;11.30;100.00;102432.31;4975178;28;20043;-79
2023/06/05 02:32:56;;;;;;;4.97;2.08;;;;;;;11.31;100.00;102434.09;4950854;28;20061;-79
2023/06/05 02:35:24;;;;;;;2.28;2.15;;;;;;;11.30;100.00;102429.69;4975988;28;20054;-78
2023/06/05 02:37:52;;;;;;;2.30;2.10;;;;;;;11.32;100.00;102440.25;4969095;28;20419;-79
2023/06/05 02:40:20;;;;;;;3.22;1.90;;;;;;;11.32;100.00;102427.97;4957855;28;20042;-79
2023/06/05 02:42:47;;;;;;;4.60;2.30;;;;;;;11.32;100.00;102427.06;4947822;28;20065;-79
2023/06/05 02:45:15;;;;;;;2.33;2.13;;;;;;;11.32;100.00;102429.69;4957659;28;20504;-79
2023/06/05 02:47:43;;;;;;;2.97;2.10;;;;;;;11.32;100.00;102438.53;4937353;28;20057;-78
2023/06/05 02:50:11;;;;;;;2.65;2.42;;;;;;;11.33;100.00;102434.13;4967896;28;20047;-78
2023/06/05 02:52:43;;;;;;;2.35;2.15;;;;;;;11.32;100.00;102427.06;4967668;28;20841;-78
2023/06/05 02:55:23;;;;;;;2.37;2.17;;;;;;;11.32;100.00;102433.25;4988682;28;20058;-79
2023/06/05 02:57:53;;;;;;;2.77;2.37;;;;;;;11.32;100.00;102432.31;4964785;28;20063;-79
2023/06/05 03:00:27;;;;;;;2.22;2.13;;;;;;;11.35;100.00;102435.06;4973881;28;20062;-79
2023/06/05 03:02:55;;;;;;;3.25;2.17;;;;;;;11.39;100.00;102433.41;4917768;28;20059;-78
2023/06/05 03:05:28;;;;;;;1.88;1.77;;;;;;;11.39;100.00;102428.13;4945770;28;20389;-79
2023/06/05 03:08:06;;;;;;;2.35;2.08;;;;;;;11.39;100.00;102428.13;4973408;28;20507;-79
2023/06/05 03:10:34;;;;;;;3.85;1.83;;;;;;;11.37;100.00;102428.06;4949569;28;20054;-79
2023/06/05 03:13:04;;;;;;;3.90;2.03;;;;;;;11.36;100.00;102433.31;4968579;28;20054;-79
2023/06/05 03:15:35;;;;;;;2.70;2.22;;;;;;;11.35;100.00;102435.06;4986333;28;20050;-78
2023/06/05 03:18:06;;;;;;;2.67;2.20;;;;;;;11.37;100.00;102424.53;4930459;28;20049;-78
2023/06/05 03:20:36;;;;;;;3.78;1.80;;;;;;;11.39;100.00;102430.75;4957392;28;20046;-79
2023/06/05 03:23:03;;;;;;;2.10;1.90;;;;;;;11.41;100.00;102427.28;4956394;28;20046;-79
2023/06/05 03:25:31;;;;;;;3.25;2.00;;;;;;;11.42;100.00;102422.91;4970934;28;20146;-79
2023/06/05 03:27:58;;;;;;;2.92;2.17;;;;;;;11.45;100.00;102429.16;4950566;28;20052;-78
2023/06/05 03:30:28;;;;;;;1.80;1.70;;;;;;;11.48;100.00;102431.00;4967946;28;20455;-78
2023/06/05 03:32:58;;;;;;;3.15;2.05;;;;;;;11.48;100.00;102423.06;4949685;28;20042;-78
2023/06/05 03:35:27;;;;;;;3.20;2.15;;;;;;;11.49;100.00;102430.13;4971842;28;20058;-79
2023/06/05 03:37:59;;;;;;;2.10;1.90;;;;;;;11.50;100.00;102424.00;4972521;28;20776;-79
2023/06/05 03:40:28;;;;;;;4.97;2.20;;;;;;;11.52;100.00;102427.56;4972676;28;20054;-79
2023/06/05 03:42:56;;;;;;;5.20;2.38;;;;;;;11.55;100.00;102429.38;4942180;28;20126;-79
2023/06/05 03:45:26;;;;;;;2.75;1.90;;;;;;;11.56;100.00;102421.50;4968643;28;20058;-79
2023/06/05 03:47:54;;;;;;;2.08;1.98;;;;;;;11.59;100.00;102420.69;4933784;28;20069;-79
2023/06/05 03:50:23;;;;;;;3.55;2.40;;;;;;;11.61;100.00;102430.44;4988179;28;20050;-78
2023/06/05 03:52:52;;;;;;;2.47;2.13;;;;;;;11.60;100.00;102422.47;4970061;28;20053;-79
2023/06/05 03:55:20;;;;;;;2.00;1.90;;;;;;;11.60;100.00;102422.47;4972474;28;20046;-79
2023/06/05 03:57:48;;;;;;;3.30;2.50;;;;;;;11.61;100.00;102422.50;4958098;28;20055;-79
2023/06/05 04:00:16;;;;;;;2.53;1.95;;;;;;;11.62;100.00;102420.75;4988227;28;20048;-79
2023/06/05 04:02:56;;;;;;;7.45;2.10;;;;;;;11.62;100.00;102423.38;4936919;28;20042;-79
2023/06/05 04:05:23;;;;;;;2.10;1.90;;;;;;;11.61;100.00;102416.34;4918675;28;20061;-79
2023/06/05 04:07:52;;;;;;;3.20;1.92;;;;;;;11.60;100.00;102427.75;4978895;28;20526;-79
2023/06/05 04:10:19;;;;;;;1.85;1.75;;;;;;;11.60;100.00;102422.47;4966772;28;20054;-79
2023/06/05 04:12:47;;;;;;;2.72;2.30;;;;;;;11.60;100.00;102422.47;4968222;28;20047;-79
2023/06/05 04:15:15;;;;;;;3.50;2.63;;;;;;;11.61;100.00;102419.88;4970115;28;20054;-79
2023/06/05 04:17:42;;;;;;;3.17;2.55;;;;;;;11.64;100.00;102414.63;4939978;28;20062;-78
2023/06/05 04:20:14;;;;;;;2.20;1.85;;;;;;;11.66;100.00;102422.59;4931332;28;20102;-79
2023/06/05 04:22:43;;;;;;;3.38;2.30;;;;;;;11.69;100.00;102423.56;4987415;28;20046;-79
2023/06/05 04:25:14;;;;;;;2.40;2.13;;;;;;;11.74;100.00;102414.84;4975632;28;20062;-79
2023/06/05 04:27:46;;;;;;;2.20;2.00;;;;;;;11.76;100.00;102408.78;4983891;28;20058;-79
2023/06/05 04:30:13;;;;;;;2.53;2.33;;;;;;;11.80;100.00;102412.38;4978457;28;20817;-79
2023/06/05 04:32:42;;;;;;;1.77;1.67;;;;;;;11.86;100.00;102417.81;4952147;28;20054;-79
2023/06/05 04:35:11;;;;;;;2.08;1.85;;;;;;;11.90;100.00;102417.03;4944972;28;20081;-79
2023/06/05 04:37:39;;;;;;;2.55;2.20;;;;;;;11.93;100.00;102410.94;4969530;28;20046;-78
2023/06/05 04:40:09;;;;;;;3.53;1.90;;;;;;;11.93;100.00;102405.63;4935919;28;20054;-79
2023/06/05 04:42:39;;;;;;;2.10;1.75;;;;;;;11.99;100.00;102413.72;4970449;28;20066;-79
2023/06/05 04:45:08;;;;;;;1.90;1.80;;;;;;;12.11;100.00;102418.38;4970987;28;20058;-79
2023/06/05 04:47:39;;;;;;;2.20;1.98;;;;;;;12.19;100.00;102424.72;5002176;28;20050;-79
2023/06/05 04:50:07;;;;;;;2.35;1.85;;;;;;;12.24;100.00;102416.03;4962675;28;20044;-79
2023/06/05 04:52:39;;;;;;;2.10;1.90;;;;;;;12.37;100.00;102411.03;4962606;28;20053;-79
2023/06/05 04:55:08;;;;;;;2.60;1.50;;;;;;;12.58;100.00;102413.19;4980585;28;20057;-79
2023/06/05 04:57:36;;;;;;;4.60;3.60;;;;;;;12.68;100.00;102413.44;4965920;28;20065;-79
2023/06/05 05:00:07;;;;;;;2.90;1.92;;;;;;;12.72;100.00;102405.53;4946815;28;20061;-79
2023/06/05 05:02:36;;;;;;;2.28;1.65;;;;;;;12.83;100.00;102418.09;4980687;28;20042;-79
2023/06/05 05:05:04;;;;;;;2.25;1.40;;;;;;;12.96;100.00;102415.69;4938180;28;20173;-79
2023/06/05 05:07:32;;;;;;;1.83;1.67;;;;;;;12.98;100.00;102414.84;4952752;28;20057;-78
2023/06/05 05:10:00;;;;;;;1.90;1.75;;;;;;;12.96;100.00;102415.69;4940947;28;20061;-79
2023/06/05 05:12:30;;;;;;;2.72;1.73;;;;;;;13.04;100.00;102408.75;4939823;28;20045;-78
2023/06/05 05:14:58;;;;;;;1.98;1.60;;;;;;;13.02;100.00;102405.22;4993920;28;20061;-78
2023/06/05 05:17:26;;;;;;;2.58;1.70;;;;;;;13.05;100.00;102405.28;4941663;28;20598;-79
2023/06/05 05:19:54;;;;;;;1.67;1.58;;;;;;;13.05;100.00;102405.28;4970037;28;20057;-79
2023/06/05 05:22:21;;;;;;;1.98;1.70;;;;;;;13.07;100.00;102414.13;4930314;28;20680;-78
2023/06/05 05:24:49;;;;;;;3.28;2.17;;;;;;;13.02;100.00;102421.09;4951786;28;20053;-78
2023/06/05 05:27:16;;;;;;;3.60;1.95;;;;;;;12.95;100.00;102416.53;4954381;28;20053;-77
2023/06/05 05:29:45;;;;;;;2.58;1.50;;;;;;;12.94;100.00;102418.28;4962019;28;20054;-77
2023/06/05 05:32:12;;;;;;;1.60;1.50;;;;;;;13.00;100.00;102412.22;4917280;28;24616;-78
2023/06/05 05:34:40;;;;;;;1.90;1.60;;;;;;;13.08;100.00;102410.63;4970130;28;20047;-78
2023/06/05 05:37:08;;;;;;;3.80;2.08;;;;;;;13.21;100.00;102407.34;4940148;28;20054;-78
2023/06/05 05:39:35;;;;;;;1.50;1.30;;;;;;;13.31;100.00;102410.13;4956184;28;20051;-77
2023/06/05 05:42:03;;;;;;;2.25;1.50;;;;;;;13.34;100.00;102420.78;4920124;28;20215;-78
2023/06/05 05:44:30;;;;;;;1.65;1.55;;;;;;;13.39;100.00;102413.81;4970582;28;20049;-77
2023/06/05 05:46:57;;;;;;;2.90;1.55;;;;;;;13.53;100.00;102422.88;4967236;28;20049;-77
2023/06/05 05:49:50;;;;;;;1.92;1.33;;;;;;;13.77;100.00;102421.47;4964588;28;20054;-78
2023/06/05 05:52:20;;;;;;;1.77;1.40;;;;;;;14.08;100.00;102422.81;4950502;28;20392;-79
2023/06/05 05:54:47;;;;;;;2.97;1.63;;;;;;;14.28;100.00;102420.44;4969151;28;20042;-79
2023/06/05 05:57:15;;;;;;;2.42;1.52;;;;;;;14.52;100.00;102414.53;4959217;28;20050;-80
2023/06/05 05:59:44;;;;;;;1.50;1.33;;;;;;;14.63;100.00;102417.38;4952300;28;20053;-79
2023/06/05 06:02:12;;;;;;;3.25;1.40;;;;;;;14.68;100.00;102422.72;4972706;28;20046;-79
2023/06/05 06:04:40;;;;;;;1.42;1.30;;;;;;;14.63;100.00;102427.97;4982498;28;20050;-79
2023/06/05 06:07:08;;;;;;;1.75;1.30;;;;;;;14.61;100.00;102429.69;4940458;28;20057;-79
2023/06/05 06:09:35;;;;;;;1.95;1.70;;;;;;;14.44;100.00;102426.81;4986984;28;20056;-78
2023/06/05 06:12:05;;;;;;;2.60;1.63;;;;;;;14.29;100.00;102424.88;4976425;28;20054;-78
2023/06/05 06:14:34;;;;;;;2.50;1.38;;;;;;;14.27;100.00;102423.06;4983408;28;20045;-79
2023/06/05 06:17:02;;;;;;;2.28;1.50;;;;;;;14.26;100.00;102419.53;5001861;28;20507;-78
2023/06/05 06:19:32;;;;;;;3.20;1.80;;;;;;;14.26;100.00;102427.47;4973310;28;20049;-77
2023/06/05 06:22:00;;;;;;;2.75;1.35;;;;;;;14.28;100.00;102433.69;4991592;28;20046;-79
2023/06/05 06:24:28;;;;;;;1.50;1.40;;;;;;;14.38;100.00;102432.91;4961164;28;20049;-78
2023/06/05 06:26:55;;;;;;;1.38;1.27;;;;;;;14.41;100.00;102432.97;4995969;28;20057;-79
2023/06/05 06:29:25;;;;;;;1.42;1.30;;;;;;;14.37;100.00;102425.84;4990294;28;20065;-79
2023/06/05 06:31:52;;;;;;;2.40;1.30;;;;;;;14.37;100.00;102433.81;4979322;28;20069;-80
2023/06/05 06:34:20;;;;;;;1.42;1.30;;;;;;;14.46;100.00;102427.75;4973290;28;20056;-79
2023/06/05 06:36:47;;;;;;;1.50;1.40;;;;;;;14.60;100.00;102427.94;4963878;28;20049;-78
2023/06/05 06:39:14;;;;;;;1.55;1.30;;;;;;;14.76;100.00;102431.63;4946275;28;20053;-80
2023/06/05 06:41:42;;;;;;;2.63;1.35;;;;;;;14.69;100.00;102427.13;4999858;28;20065;-79
2023/06/05 06:44:09;;;;;;;1.13;1.13;;;;;;;14.67;100.00;102435.09;4956997;28;20054;-78
2023/06/05 06:46:36;;;;;;;1.20;1.10;;;;;;;14.71;100.00;102428.06;4983549;28;20042;-79
2023/06/05 06:49:06;;;;;;;1.70;1.23;;;;;;;14.72;100.00;102438.66;4965818;28;20084;-79
2023/06/05 06:51:33;;;;;;;1.88;1.08;;;;;;;14.72;100.00;102435.13;4984959;28;20053;-79
2023/06/05 06:54:00;;;;;;;1.60;1.10;;;;;;;14.73;100.00;102427.19;4927167;28;20042;-79
2023/06/05 06:56:28;;;;;;;3.15;1.45;;;;;;;14.74;100.00;102436.91;5007676;28;20093;-79
2023/06/05 06:58:55;;;;;;;2.05;1.38;;;;;;;14.82;100.00;102437.91;4981479;28;20064;-79
2023/06/05 07:01:24;;;;;;;1.60;1.10;;;;;;;14.86;100.00;102437.94;5003703;28;20062;-79
2023/06/05 07:03:52;;;;;;;3.42;1.30;;;;;;;14.87;100.00;102447.69;4952981;28;20050;-80
2023/06/05 07:06:21;;;;;;;1.10;1.00;;;;;;;14.92;100.00;102443.31;4985690;28;20149;-79
2023/06/05 07:08:49;;;;;;;1.90;1.40;;;;;;;14.97;100.00;102450.47;4949856;28;20061;-79
2023/06/05 07:11:16;;;;;;;2.05;1.17;;;;;;;14.99;100.00;102445.19;4994573;28;20054;-79
2023/06/05 07:13:43;;;;;;;1.25;1.15;;;;;;;14.99;100.00;102448.72;4987700;28;20213;-80
2023/06/05 07:16:11;;;;;;;1.80;1.33;;;;;;;15.04;100.00;102443.44;4981868;28;20407;-80
2023/06/05 07:18:40;;;;;;;3.25;1.60;;;;;;;15.13;100.00;102442.66;4974318;28;20050;-78
2023/06/05 07:21:08;;;;;;;1.42;1.33;;;;;;;15.24;100.00;102441.00;4997560;28;20050;-80
2023/06/05 07:23:36;;;;;;;1.27;1.17;;;;;;;15.33;100.00;102448.13;4962390;28;20038;-79
2023/06/05 07:26:04;;;;;;;1.50;1.30;;;;;;;15.28;100.00;102447.22;4958828;28;20488;-80
2023/06/05 07:28:31;;;;;;;1.50;1.38;;;;;;;15.20;100.00;102441.84;4989301;28;20057;-80
2023/06/05 07:31:03;;;;;;;1.40;1.30;;;;;;;15.18;100.00;102448.91;4963580;28;20830;-80
2023/06/05 07:33:30;;;;;;;1.63;1.35;;;;;;;15.26;100.00;102438.34;4976238;28;20045;-80
2023/06/05 07:36:01;;;;;;;2.22;1.40;;;;;;;15.32;100.00;102443.72;4978593;28;20054;-80
2023/06/05 07:38:29;;;;;;;1.50;1.40;;;;;;;15.34;100.00;102444.63;4975286;28;20057;-80
2023/06/05 07:40:58;;;;;;;1.98;1.45;;;;;;;15.35;100.00;102439.31;4949812;28;20058;-79
2023/06/05 07:43:25;;;;;;;1.35;1.20;;;;;;;15.43;100.00;102439.38;4992543;28;20057;-80
2023/06/05 07:45:53;;;;;;;2.13;1.55;;;;;;;15.51;100.00;102444.75;4997566;28;20050;-80
2023/06/05 07:48:20;;;;;;;1.30;1.20;;;;;;;15.50;100.00;102438.56;5008435;28;20061;-79
2023/06/05 07:50:48;;;;;;;1.60;1.50;;;;;;;15.53;100.00;102433.25;4976372;28;20050;-80
2023/06/05 07:53:15;;;;;;;1.38;1.27;;;;;;;15.57;100.00;102452.78;4987599;28;20054;-80
2023/06/05 07:55:43;;;;;;;1.50;1.40;;;;;;;15.62;100.00;102450.16;4972622;28;20052;-79
2023/06/05 07:58:10;;;;;;;1.67;1.55;;;;;;;15.65;100.00;102442.19;4989010;28;20053;-80
2023/06/05 08:00:38;;;;;;;1.65;1.55;;;;;;;15.72;100.00;102441.38;5006884;28;20057;-80
2023/06/05 08:03:05;;;;;;;2.65;1.70;;;;;;;15.72;100.00;102447.56;4994606;28;20045;-79
2023/06/05 08:05:36;;;;;;;;;;;;;;;15.67;100.00;102445.75;5000100;28;20073;-79
2023/06/05 08:08:03;;;;;;;1.20;1.17;;;;;;;15.67;100.00;102451.97;4960830;28;20688;-80
2023/06/05 08:10:31;;;;;;;1.25;1.15;;;;;;;15.67;100.00;102456.38;5003269;28;20118;-80
2023/06/05 08:12:58;;;;;;;1.40;1.30;;;;;;;15.48;100.00;102439.41;4951601;28;20053;-80
2023/06/05 08:15:25;;;;;;;1.60;1.50;;;;;;;15.51;100.00;102444.75;4991245;28;20054;-79
2023/06/05 08:17:53;;;;;;;1.27;1.17;;;;;;;15.53;100.00;102443.88;4961983;28;20062;-79
2023/06/05 08:20:21;;;;;;;1.50;1.40;;;;;;;15.57;100.00;102444.78;4978286;28;20049;-79
2023/06/05 08:22:49;;;;;;;1.38;1.33;;;;;;;15.53;100.00;102433.25;4970292;28;20045;-80
2023/06/05 08:25:16;;;;;;;2.33;1.90;;;;;;;15.58;100.00;102436.84;4981837;28;20050;-79
2023/06/05 08:27:44;;;;;;;1.60;1.50;;;;;;;15.64;100.00;102424.50;4950468;28;20050;-79
2023/06/05 08:30:12;;;;;;;2.03;1.38;;;;;;;15.64;100.00;102440.44;4986764;28;20046;-79
2023/06/05 08:32:39;;;;;;;3.53;1.42;;;;;;;15.62;100.00;102436.88;4954228;28;20526;-79
2023/06/05 08:35:07;;;;;;;1.40;1.30;;;;;;;15.62;100.00;102426.25;4963194;28;20050;-78
2023/06/05 08:37:35;;;;;;;1.33;1.23;;;;;;;15.59;100.00;102435.06;4975205;28;20058;-79
2023/06/05 08:40:06;;;;;;;1.83;1.52;;;;;;;15.56;100.00;102425.31;4988394;28;20057;-79
2023/06/05 08:42:34;;;;;;;1.58;1.48;;;;;;;15.57;100.00;102432.41;4944510;28;20046;-79
2023/06/05 08:45:01;;;;;;;2.47;1.63;;;;;;;15.64;100.00;102440.44;5003823;28;20045;-79
2023/06/05 08:47:31;;;;;;;1.77;1.35;;;;;;;15.65;100.00;102431.56;4993295;28;20042;-79
2023/06/05 08:50:03;;;;;;;1.77;1.63;;;;;;;15.68;100.00;102428.94;5006126;28;20526;-79
2023/06/05 08:52:38;;;;;;;1.40;1.40;;;;;;;15.68;100.00;102443.13;4987777;28;20049;-79
2023/06/05 08:55:07;;;;;;;1.70;1.60;;;;;;;15.70;100.00;102440.47;4991116;28;20435;-79
2023/06/05 08:57:38;;;;;;;1.70;1.60;;;;;;;15.68;100.00;102440.47;4942964;28;22890;-79
2023/06/05 09:00:09;;;;;;;;;;;;;;;15.69;100.00;102444.91;5006082;28;20058;-79
2023/06/05 09:02:39;;;;;;;1.63;1.52;;;;;;;15.65;100.00;102447.50;4976202;28;20579;-80
2023/06/05 09:05:08;;;;;;;1.73;1.48;;;;;;;15.71;100.00;102444.94;4999415;28;20054;-79
2023/06/05 09:07:36;;;;;;;2.55;1.30;;;;;;;15.72;100.00;102441.38;4951283;28;20050;-80
2023/06/05 09:10:26;;;;;;;1.30;1.20;;;;;;;15.78;100.00;102437.03;4962828;28;20462;-79
2023/06/05 09:12:55;;;;;;;1.55;1.42;;;;;;;15.84;100.00;102438.84;4954344;28;20110;-80
2023/06/05 09:15:24;;;;;;;3.22;1.63;;;;;;;15.86;100.00;102431.78;4995067;28;20049;-79
2023/06/05 09:18:09;;;;;;;1.83;1.70;;;;;;;15.91;100.00;102431.78;4994829;28;20508;-79
2023/06/05 09:20:39;;;;;;;2.15;1.52;;;;;;;16.00;100.00;102428.31;4984308;28;20133;-79
2023/06/05 09:23:32;;;;;;;1.88;1.50;;;;;;;16.00;100.00;102434.50;4991431;28;20060;-79
2023/06/05 09:26:01;;;;;;;2.03;1.48;;;;;;;15.98;100.00;102426.50;4981593;28;20054;-79
2023/06/05 09:28:29;;;;;;;2.53;1.40;;;;;;;16.05;100.00;102426.53;4968148;28;20053;-79
2023/06/05 09:31:01;;;;;;;1.55;1.45;;;;;;;16.02;100.00;102423.88;4985248;28;20053;-79
2023/06/05 09:33:31;;;;;;;2.30;1.48;;;;;;;15.98;100.00;102423.84;4995993;28;20068;-79
2023/06/05 09:36:04;;;;;;;2.15;1.60;;;;;;;16.01;100.00;102422.09;5004409;28;20052;-80
2023/06/05 09:38:32;;;;;;;2.33;1.27;;;;;;;15.97;100.00;102421.19;4989707;28;20057;-80
2023/06/05 09:41:19;;;;;;;2.88;1.77;;;;;;;16.02;100.00;102415.91;4979021;28;20062;-79
2023/06/05 09:43:49;;;;;;;2.28;1.80;;;;;;;16.04;100.00;102416.81;4943698;28;20069;-79
2023/06/05 09:46:18;;;;;;;4.53;2.35;;;;;;;16.06;100.00;102421.25;4967704;28;20056;-79
2023/06/05 09:49:01;;;;;;;3.28;1.33;;;;;;;16.12;100.00;102423.97;4977879;28;20050;-79
2023/06/05 09:51:29;;;;;;;2.88;1.83;;;;;;;16.17;100.00;102424.84;4994677;28;20054;-79
2023/06/05 09:53:58;;;;;;;2.20;1.55;;;;;;;16.16;100.00;102416.84;4990231;28;20050;-79
2023/06/05 09:56:26;;;;;;;1.40;1.30;;;;;;;16.10;100.00;102416.81;4983189;28;20135;-79
2023/06/05 09:58:53;;;;;;;2.22;1.58;;;;;;;16.13;100.00;102417.72;4945355;28;20049;-79
2023/06/05 10:01:27;;;;;;;1.75;1.48;;;;;;;16.18;100.00;102409.75;4958844;28;20054;-79
2023/06/05 10:04:16;;;;;;;1.38;1.27;;;;;;;16.21;100.00;102415.09;4994830;28;20045;-79
2023/06/05 10:06:47;;;;;;;1.38;1.27;;;;;;;16.21;100.00;102417.78;4985005;28;20049;-81
2023/06/05 10:09:15;;;;;;;2.25;1.38;;;;;;;16.14;100.00;102413.28;5003733;28;20176;-78
2023/06/05 10:11:43;;;;;;;1.45;1.35;;;;;;;16.13;100.00;102406.22;4958793;28;20061;-78
2023/06/05 10:14:11;;;;;;;1.35;1.25;;;;;;;16.15;100.00;102415.09;4957582;28;20518;-78
2023/06/05 10:16:39;;;;;;;3.85;1.65;;;;;;;16.24;100.00;102415.13;4994481;28;20054;-80
2023/06/05 10:19:07;;;;;;;2.45;1.50;;;;;;;16.23;100.00;102415.13;4948955;28;20062;-78
2023/06/05 10:21:36;;;;;;;1.42;1.33;;;;;;;16.16;100.00;102415.09;4968847;28;20046;-79
2023/06/05 10:24:07;;;;;;;2.05;1.30;;;;;;;16.18;100.00;102409.75;4974503;28;20417;-78
2023/06/05 10:27:02;;;;;;;1.35;1.27;;;;;;;16.29;100.00;102416.03;4987547;28;20049;-79
2023/06/05 10:30:04;;;;;;;1.38;1.27;;;;;;;16.31;100.00;102403.66;4967657;28;20061;-80
2023/06/05 10:32:54;;;;;;;1.27;1.20;;;;;;;16.36;100.00;102412.50;4982113;28;20049;-78
2023/06/05 10:35:35;;;;;;;1.70;1.40;;;;;;;16.45;100.00;102413.44;5002995;28;20046;-79
2023/06/05 10:38:17;;;;;;;2.47;1.50;;;;;;;16.46;100.00;102409.91;4983193;28;20061;-78
2023/06/05 10:40:55;;;;;;;2.25;1.40;;;;;;;16.45;100.00;102410.78;5001276;28;20042;-79
2023/06/05 10:43:47;;;;;;;1.30;1.20;;;;;;;16.37;100.00;102405.44;4994303;28;20057;-79
2023/06/05 10:46:47;;;;;;;1.63;1.40;;;;;;;16.42;100.00;102408.09;4955417;28;20053;-79
2023/06/05 10:49:19;;;;;;;1.73;1.63;;;;;;;16.49;100.00;102407.25;4978186;28;20052;-79
2023/06/05 10:51:48;;;;;;;2.10;1.30;;;;;;;16.52;100.00;102399.25;4989349;28;20053;-78
2023/06/05 10:54:22;;;;;;;2.88;1.30;;;;;;;16.56;100.00;102398.41;4986312;28;20064;-79
2023/06/05 10:57:02;;;;;;;1.63;1.50;;;;;;;16.55;100.00;102401.94;4991548;28;20049;-79
2023/06/05 10:59:33;;;;;;;1.60;1.50;;;;;;;16.57;100.00;102394.84;4952754;28;21158;-79
2023/06/05 11:02:05;;;;;;;1.50;1.20;;;;;;;16.65;100.00;102398.41;4958102;28;20054;-78
2023/06/05 11:04:48;;;;;;;3.45;1.25;;;;;;;16.75;100.00;102405.56;4990146;28;20049;-78
2023/06/05 11:07:24;;;;;;;1.67;1.27;;;;;;;16.71;100.00;102395.78;5008068;28;20072;-79
2023/06/05 11:10:06;;;;;;;1.55;1.40;;;;;;;16.76;100.00;102401.09;5010710;28;20068;-79
2023/06/05 11:12:40;;;;;;;1.88;1.35;;;;;;;16.76;100.00;102390.47;4986616;28;20061;-79
2023/06/05 11:15:11;;;;;;;1.55;1.30;;;;;;;16.78;100.00;102399.34;4978504;28;20057;-79
2023/06/05 11:17:40;;;;;;;3.13;1.83;;;;;;;16.76;100.00;102395.78;4976330;28;20064;-79
2023/06/05 11:20:28;;;;;;;4.82;1.55;;;;;;;16.83;100.00;102404.72;4981344;28;20062;-79
2023/06/05 11:22:59;;;;;;;1.60;1.50;;;;;;;16.84;100.00;102396.75;4985389;28;20526;-79
2023/06/05 11:25:28;;;;;;;1.60;1.50;;;;;;;16.83;100.00;102402.06;5002918;28;20980;-79
2023/06/05 11:28:13;;;;;;;2.33;1.50;;;;;;;16.80;100.00;102394.91;4982289;28;20057;-79
2023/06/05 11:30:42;;;;;;;1.30;1.20;;;;;;;16.83;100.00;102407.38;4980105;28;20086;-79